Time;durP1;ratioP1;P1;durP2;ratioP2;P2;SDS_P1;SDS_P2;PMS_P1;PMS_P2;Temp;Humidity;BMP_temperature;BMP_pressure;BME280_temperature;BME280_humidity;BME280_pressure;Samples;Min_cycle;Max_cycle;Signal;HPM_P1;HPM_P2
2021/05/20 00:00:15;;;;;;;11.63;6.40;;;;;;;19.69;59.13;98875.75;4961323;28;20046;-63
2021/05/20 00:02:43;;;;;;;20.77;7.78;;;;;;;19.59;59.75;98867.50;4979892;28;20048;-64
2021/05/20 00:05:11;;;;;;;13.73;6.60;;;;;;;19.65;59.77;98872.44;4994089;28;20046;-64
2021/05/20 00:07:38;;;;;;;18.67;7.75;;;;;;;19.53;59.41;98865.25;4994562;28;20038;-65
2021/05/20 00:10:07;;;;;;;16.33;7.82;;;;;;;19.61;59.36;98854.81;4976847;28;20092;-68
2021/05/20 00:12:33;;;;;;;19.75;7.72;;;;;;;19.72;59.59;98862.09;5000479;28;20097;-64
2021/05/20 00:15:00;;;;;;;20.17;8.40;;;;;;;19.66;59.88;98860.72;4975892;28;20080;-65
2021/05/20 00:17:26;;;;;;;14.70;7.30;;;;;;;19.74;59.53;98882.53;4977084;28;20042;-64
2021/05/20 00:19:52;;;;;;;15.60;7.55;;;;;;;19.57;59.62;98863.19;4999151;28;20045;-65
2021/05/20 00:22:18;;;;;;;20.05;7.32;;;;;;;19.67;59.31;98883.09;4979186;28;20042;-65
2021/05/20 00:24:44;;;;;;;23.80;7.55;;;;;;;19.65;59.68;98876.94;4997867;28;20052;-70
2021/05/20 00:27:10;;;;;;;14.77;6.93;;;;;;;19.67;59.87;98894.72;4998743;28;20042;-64
2021/05/20 00:29:36;;;;;;;13.60;7.10;;;;;;;19.49;60.30;98903.19;4997023;28;20039;-64
2021/05/20 00:32:02;;;;;;;18.92;7.95;;;;;;;19.50;60.19;98886.13;4996580;28;20081;-64
2021/05/20 00:34:27;;;;;;;16.77;7.43;;;;;;;19.19;60.43;98889.16;4997624;28;20116;-64
2021/05/20 00:36:54;;;;;;;20.63;8.23;;;;;;;19.27;60.85;98901.16;4989461;28;20046;-68
2021/05/20 00:39:20;;;;;;;16.92;8.48;;;;;;;19.24;60.92;98914.81;5012222;28;20132;-67
2021/05/20 00:41:46;;;;;;;13.60;7.88;;;;;;;19.30;61.09;98925.13;5005461;28;20121;-69
2021/05/20 00:44:12;;;;;;;22.90;8.63;;;;;;;19.36;61.24;98956.97;4987713;28;20454;-67
2021/05/20 00:46:38;;;;;;;17.10;8.45;;;;;;;19.10;62.09;98946.25;4998380;28;20049;-67
2021/05/20 00:49:09;;;;;;;17.00;8.25;;;;;;;19.09;61.86;98944.50;5000969;28;20081;-67
2021/05/20 00:51:41;;;;;;;14.85;8.25;;;;;;;19.04;61.77;98952.03;4978501;28;20092;-68
2021/05/20 00:54:08;;;;;;;8.55;6.93;;;;;;;18.81;62.08;98950.88;4998373;28;20085;-67
2021/05/20 00:56:38;;;;;;;16.25;8.68;;;;;;;18.91;62.36;98961.88;5003399;28;20049;-68
2021/05/20 00:59:05;;;;;;;20.02;9.02;;;;;;;18.90;62.49;98965.53;4993500;28;20045;-67
2021/05/20 01:01:36;;;;;;;16.42;9.32;;;;;;;18.59;63.29;98961.28;4967660;28;20042;-68
2021/05/20 01:04:01;;;;;;;14.93;9.52;;;;;;;18.46;63.91;98948.75;4997644;28;20054;-69
2021/05/20 01:06:28;;;;;;;15.48;8.95;;;;;;;18.46;63.78;98940.69;4995229;28;20058;-68
2021/05/20 01:08:57;;;;;;;16.38;7.80;;;;;;;18.19;64.64;98923.69;4997228;28;20042;-68
2021/05/20 01:11:24;;;;;;;13.15;8.32;;;;;;;18.13;64.86;98915.03;4965960;28;20052;-68
2021/05/20 01:13:50;;;;;;;14.38;8.23;;;;;;;18.02;64.89;98900.59;4979365;28;20045;-68
2021/05/20 01:16:15;;;;;;;13.68;8.30;;;;;;;17.95;65.28;98891.22;4994770;28;20115;-67
2021/05/20 01:18:43;;;;;;;15.40;7.70;;;;;;;18.07;65.09;98892.25;4996606;28;20053;-67
2021/05/20 01:21:09;;;;;;;16.10;8.45;;;;;;;18.04;64.58;98848.56;4981228;28;20038;-67
2021/05/20 01:23:35;;;;;;;16.23;8.48;;;;;;;18.21;64.61;98852.84;4998935;28;20134;-67
2021/05/20 01:26:04;;;;;;;13.02;8.07;;;;;;;18.39;64.13;98858.88;5004445;28;20069;-68
2021/05/20 01:28:32;;;;;;;13.38;8.05;;;;;;;18.27;64.46;98887.31;5001568;28;20490;-67
2021/05/20 01:30:59;;;;;;;12.25;8.18;;;;;;;18.01;65.05;98867.53;4994596;28;20117;-68
2021/05/20 01:33:25;;;;;;;16.27;8.38;;;;;;;17.83;65.11;98858.00;4999491;28;20197;-68
2021/05/20 01:35:50;;;;;;;12.48;8.50;;;;;;;17.96;65.32;98858.91;4995228;28;20375;-69
2021/05/20 01:40:59;;;;;;;13.68;8.57;;;;;;;18.26;64.42;98898.16;4998382;28;20129;-71
2021/05/20 01:43:25;;;;;;;14.57;8.32;;;;;;;18.32;64.54;98908.50;5001953;28;20455;-75
2021/05/20 01:45:57;;;;;;;14.85;8.25;;;;;;;18.29;64.79;98904.19;4986746;28;20052;-74
2021/05/20 01:48:24;;;;;;;15.90;8.60;;;;;;;18.48;64.23;98906.56;5019245;28;20081;-69
2021/05/20 01:50:51;;;;;;;14.63;8.43;;;;;;;18.53;64.13;98907.13;4998346;28;20285;-69
2021/05/20 01:53:17;;;;;;;15.15;8.82;;;;;;;18.62;64.13;98907.38;4997282;28;20050;-70
2021/05/20 01:55:44;;;;;;;13.43;9.43;;;;;;;18.67;63.64;98912.47;4998706;28;20038;-66
2021/05/20 01:58:09;;;;;;;16.90;8.90;;;;;;;18.68;63.73;98909.69;4988606;28;20046;-70
2021/05/20 02:00:35;;;;;;;14.50;8.55;;;;;;;18.70;63.60;98905.06;5003180;28;20042;-67
2021/05/20 02:03:02;;;;;;;17.00;8.63;;;;;;;18.73;63.58;98912.91;5003051;28;20052;-67
2021/05/20 02:05:28;;;;;;;14.35;8.48;;;;;;;18.77;63.13;98908.19;4988900;28;20104;-66
2021/05/20 02:07:54;;;;;;;12.18;8.95;;;;;;;18.72;63.37;98913.88;4986488;28;20054;-68
2021/05/20 02:10:20;;;;;;;19.02;8.98;;;;;;;18.76;63.14;98912.72;4998570;28;20046;-65
2021/05/20 02:12:45;;;;;;;15.55;8.70;;;;;;;18.82;62.93;98919.50;4994012;28;20066;-67
2021/05/20 02:15:11;;;;;;;20.33;9.55;;;;;;;18.96;62.75;98911.38;4984617;28;20057;-68
2021/05/20 02:17:38;;;;;;;15.27;8.38;;;;;;;18.86;62.75;98895.00;4996003;28;20052;-68
2021/05/20 02:20:07;;;;;;;15.55;7.85;;;;;;;18.97;62.42;98902.34;4987324;28;20042;-70
2021/05/20 02:22:34;;;;;;;11.70;7.63;;;;;;;18.95;62.70;98899.75;4983874;28;20053;-70
2021/05/20 02:24:59;;;;;;;10.35;7.68;;;;;;;18.86;62.73;98897.69;4988669;28;20053;-69
2021/05/20 02:27:26;;;;;;;13.65;7.68;;;;;;;18.91;62.57;98892.84;5004856;28;20100;-69
2021/05/20 02:29:51;;;;;;;15.20;7.30;;;;;;;18.93;62.50;98896.31;4996822;28;20430;-68
2021/05/20 02:32:17;;;;;;;14.02;6.90;;;;;;;19.00;62.17;98892.25;5004896;28;20048;-67
2021/05/20 02:34:43;;;;;;;22.83;7.30;;;;;;;18.95;62.31;98898.91;4989842;28;20046;-67
2021/05/20 02:37:09;;;;;;;9.10;6.40;;;;;;;19.26;61.45;98902.09;4986273;28;20038;-71
2021/05/20 02:39:35;;;;;;;9.25;6.05;;;;;;;19.29;61.16;98882.22;5014896;28;20045;-65
2021/05/20 02:42:01;;;;;;;12.63;6.45;;;;;;;19.40;60.97;98877.84;5009752;28;20084;-71
2021/05/20 02:44:27;;;;;;;14.20;6.70;;;;;;;19.54;60.79;98880.41;5007399;28;20050;-70
2021/05/20 02:46:53;;;;;;;11.43;6.03;;;;;;;19.52;60.61;98863.53;4994135;28;20074;-70
2021/05/20 02:49:22;;;;;;;10.38;5.95;;;;;;;19.69;59.96;98873.06;4983076;28;20049;-70
2021/05/20 02:51:48;;;;;;;11.25;6.28;;;;;;;19.76;59.92;98871.69;4972071;28;20167;-69
2021/05/20 02:54:14;;;;;;;12.10;6.30;;;;;;;19.81;59.74;98872.19;5001420;28;20058;-70
2021/05/20 02:56:40;;;;;;;8.48;5.43;;;;;;;19.89;59.67;98877.94;4987751;28;20042;-65
2021/05/20 02:59:09;;;;;;;13.93;6.32;;;;;;;19.86;59.52;98883.53;4999958;28;20117;-70
2021/05/20 03:01:47;;;;;;;10.57;5.78;;;;;;;19.97;59.27;98889.00;4996862;28;20054;-68
2021/05/20 03:04:13;;;;;;;14.32;6.72;;;;;;;19.85;59.69;98892.53;4975222;28;20042;-68
2021/05/20 03:06:40;;;;;;;9.95;5.30;;;;;;;19.80;59.31;98878.56;4997008;28;20916;-71
2021/05/20 03:09:09;;;;;;;12.57;5.72;;;;;;;19.93;59.32;98882.97;4952776;28;20584;-70
2021/05/20 03:11:34;;;;;;;12.05;5.50;;;;;;;19.86;59.35;98883.53;4994650;28;20502;-64
2021/05/20 03:14:01;;;;;;;9.65;5.05;;;;;;;19.87;59.39;98880.72;4984334;28;20073;-69
2021/05/20 03:16:27;;;;;;;12.75;5.30;;;;;;;19.94;59.17;98856.91;5006035;28;20336;-71
2021/05/20 03:18:53;;;;;;;10.55;5.45;;;;;;;19.98;59.08;98844.97;5005071;28;20044;-70
2021/05/20 03:21:19;;;;;;;15.27;5.07;;;;;;;19.99;59.11;98814.38;4996057;28;20051;-69
2021/05/20 03:23:46;;;;;;;8.70;4.90;;;;;;;20.07;59.01;98833.53;4988112;28;20131;-72
2021/05/20 03:26:12;;;;;;;8.55;4.80;;;;;;;20.19;58.81;98825.44;4965761;28;20469;-70
2021/05/20 03:28:38;;;;;;;8.15;4.20;;;;;;;20.25;58.08;98838.44;4983879;28;20046;-70
2021/05/20 03:31:04;;;;;;;6.53;3.60;;;;;;;20.36;57.52;98822.34;4986798;28;20049;-69
2021/05/20 03:33:29;;;;;;;5.75;3.90;;;;;;;20.21;57.24;98801.94;5002058;28;20502;-70
2021/05/20 03:35:57;;;;;;;10.63;4.10;;;;;;;20.12;57.95;98858.28;5000804;28;20050;-70
2021/05/20 03:38:24;;;;;;;7.78;4.30;;;;;;;20.21;58.07;98863.88;5016105;28;20069;-67
2021/05/20 03:40:50;;;;;;;10.95;4.53;;;;;;;20.10;58.29;98866.47;5003774;28;20423;-71
2021/05/20 03:43:16;;;;;;;11.55;4.47;;;;;;;20.14;58.16;98867.13;4986391;28;20050;-66
2021/05/20 03:45:42;;;;;;;8.25;4.32;;;;;;;20.29;57.86;98876.78;4972651;28;20133;-67
2021/05/20 03:48:08;;;;;;;10.30;4.05;;;;;;;20.14;58.03;98857.22;4981151;28;20121;-66
2021/05/20 03:50:34;;;;;;;9.07;4.22;;;;;;;20.15;58.34;98863.47;4998387;28;20085;-67
2021/05/20 03:53:00;;;;;;;8.23;4.15;;;;;;;20.17;58.06;98870.44;4986018;28;20042;-68
2021/05/20 03:55:26;;;;;;;12.32;4.10;;;;;;;20.12;58.54;98871.75;5006344;28;20058;-68
2021/05/20 03:57:52;;;;;;;9.95;4.47;;;;;;;20.20;58.58;98862.16;5004368;28;20124;-69
2021/05/20 04:00:22;;;;;;;12.30;6.03;;;;;;;20.14;58.76;98850.97;5004737;28;20081;-68
2021/05/20 04:02:50;;;;;;;17.55;5.10;;;;;;;19.94;59.77;98859.63;5004454;28;20564;-74
2021/05/20 04:05:16;;;;;;;6.70;4.10;;;;;;;20.21;58.93;98854.94;4992985;28;20050;-70
2021/05/20 04:07:42;;;;;;;7.97;4.45;;;;;;;20.09;58.77;98863.88;4997508;28;20069;-70
2021/05/20 04:10:09;;;;;;;17.88;4.93;;;;;;;20.14;59.00;98870.66;5005948;28;20042;-70
2021/05/20 04:12:35;;;;;;;14.10;4.97;;;;;;;20.08;58.99;98857.63;5004111;28;20492;-67
2021/05/20 04:15:01;;;;;;;13.05;5.15;;;;;;;20.16;58.67;98843.63;4996346;28;20133;-68
2021/05/20 04:17:27;;;;;;;10.00;6.53;;;;;;;20.06;58.96;98873.03;4990772;28;20046;-67
2021/05/20 04:19:53;;;;;;;10.18;4.70;;;;;;;20.05;59.37;98873.16;4989450;28;20116;-70
2021/05/20 04:22:19;;;;;;;6.82;4.28;;;;;;;20.09;59.04;98858.50;4994407;28;20453;-67
2021/05/20 04:24:45;;;;;;;6.03;3.45;;;;;;;20.10;58.87;98871.03;5007023;28;20038;-65
2021/05/20 04:27:11;;;;;;;5.28;3.88;;;;;;;20.05;59.18;98881.22;5001068;28;20096;-66
2021/05/20 04:29:36;;;;;;;6.32;3.70;;;;;;;19.83;59.69;98884.59;5014379;28;20039;-66
2021/05/20 04:32:03;;;;;;;8.40;3.78;;;;;;;19.80;60.12;98887.50;4996982;28;20482;-75
2021/05/20 04:34:29;;;;;;;7.45;3.60;;;;;;;20.02;59.52;98900.28;4988019;28;20043;-78
2021/05/20 04:36:54;;;;;;;12.95;3.67;;;;;;;20.01;59.39;98887.81;5020179;28;20042;-75
2021/05/20 04:39:20;;;;;;;6.38;3.85;;;;;;;19.93;59.75;98891.03;4986896;28;20042;-66
2021/05/20 04:41:46;;;;;;;7.60;4.22;;;;;;;19.77;60.26;98893.09;5017528;28;20054;-66
2021/05/20 04:44:12;;;;;;;11.38;3.60;;;;;;;19.75;60.66;98888.78;4994962;28;20054;-70
2021/05/20 04:46:38;;;;;;;21.60;4.20;;;;;;;19.25;61.46;98892.34;4988438;28;20046;-68
2021/05/20 04:49:11;;;;;;;8.70;3.58;;;;;;;19.46;61.88;98876.56;4993661;28;20057;-65
2021/05/20 04:51:39;;;;;;;10.57;3.42;;;;;;;19.21;62.54;98877.34;4988427;28;20138;-67
2021/05/20 04:54:07;;;;;;;15.07;3.95;;;;;;;19.29;62.53;98893.84;4985468;28;20057;-69
2021/05/20 04:56:33;;;;;;;7.72;2.90;;;;;;;19.45;61.85;98880.19;4994076;28;20050;-67
2021/05/20 04:58:59;;;;;;;9.07;3.30;;;;;;;19.28;61.59;98885.88;5004904;28;20046;-66
2021/05/20 05:01:26;;;;;;;9.98;3.65;;;;;;;19.24;61.74;98879.88;5015840;28;20104;-67
2021/05/20 05:03:52;;;;;;;10.43;3.03;;;;;;;19.15;62.27;98877.75;4986911;28;20054;-68
2021/05/20 05:06:19;;;;;;;7.03;3.45;;;;;;;19.14;62.45;98881.41;4991610;28;20077;-66
2021/05/20 05:08:45;;;;;;;6.28;2.90;;;;;;;19.21;62.16;98869.28;4985397;28;20165;-67
2021/05/20 05:11:11;;;;;;;7.20;2.95;;;;;;;19.50;61.25;98884.28;4995559;28;20050;-68
2021/05/20 05:13:37;;;;;;;8.25;3.30;;;;;;;19.51;61.19;98896.78;4988873;28;20050;-69
2021/05/20 05:16:03;;;;;;;6.45;3.30;;;;;;;19.48;61.24;98882.66;4988013;28;20112;-69
2021/05/20 05:18:29;;;;;;;12.18;3.63;;;;;;;19.52;61.35;98885.03;4995101;28;20090;-67
2021/05/20 05:20:55;;;;;;;9.38;2.95;;;;;;;19.39;61.72;98877.94;5002580;28;20061;-71
2021/05/20 05:23:20;;;;;;;6.20;3.15;;;;;;;19.10;62.80;98876.38;4996102;28;20039;-75
2021/05/20 05:25:50;;;;;;;6.82;3.15;;;;;;;19.16;62.92;98889.38;5006220;28;20071;-75
2021/05/20 05:28:16;;;;;;;11.73;3.28;;;;;;;19.10;62.98;98914.00;5004751;28;20037;-74
2021/05/20 05:30:43;;;;;;;10.00;3.80;;;;;;;19.18;63.44;98912.50;5009316;28;20073;-72
2021/05/20 05:33:09;;;;;;;8.23;3.70;;;;;;;19.43;62.78;98911.72;4995743;28;20861;-78
2021/05/20 05:35:35;;;;;;;9.75;3.53;;;;;;;19.62;61.94;98894.16;5005751;28;20046;-76
2021/05/20 05:38:01;;;;;;;8.85;3.28;;;;;;;19.30;61.70;98849.00;4996190;28;20038;-69
2021/05/20 05:40:28;;;;;;;8.85;2.90;;;;;;;19.67;61.22;98901.94;5007781;28;20041;-66
2021/05/20 05:42:54;;;;;;;8.60;2.85;;;;;;;19.51;61.63;98903.97;4986584;28;20116;-68
2021/05/20 05:45:20;;;;;;;7.38;3.40;;;;;;;19.31;61.51;98885.69;5004245;28;20646;-67
2021/05/20 05:47:46;;;;;;;6.53;3.33;;;;;;;19.50;60.83;98886.97;5003828;28;20041;-68
2021/05/20 05:50:14;;;;;;;9.77;3.35;;;;;;;19.51;60.89;98915.59;4976038;28;20043;-71
2021/05/20 05:52:42;;;;;;;7.95;2.80;;;;;;;19.64;60.64;98907.50;4978413;28;20042;-73
2021/05/20 05:55:09;;;;;;;8.57;3.60;;;;;;;19.53;60.91;98918.16;4995103;28;20081;-70
2021/05/20 05:57:35;;;;;;;6.05;3.20;;;;;;;19.14;61.93;98927.09;5002623;28;20189;-72
2021/05/20 06:00:02;;;;;;;6.15;3.15;;;;;;;19.26;61.46;98920.09;4996117;28;20101;-71
2021/05/20 06:02:30;;;;;;;12.77;3.30;;;;;;;19.60;60.86;98916.78;4998802;28;20046;-71
2021/05/20 06:04:56;;;;;;;10.77;3.67;;;;;;;19.37;61.18;98922.88;4976758;28;20573;-65
2021/05/20 06:07:22;;;;;;;7.90;3.60;;;;;;;19.39;61.13;98927.22;5000488;28;20109;-71
2021/05/20 06:09:48;;;;;;;7.20;4.03;;;;;;;19.21;61.79;98939.16;4995106;28;20041;-66
2021/05/20 06:12:14;;;;;;;11.43;3.75;;;;;;;19.28;61.93;98945.03;4994166;28;20359;-69
2021/05/20 06:14:40;;;;;;;7.65;3.55;;;;;;;19.16;62.33;98951.19;4993049;28;20041;-71
2021/05/20 06:17:07;;;;;;;9.90;4.03;;;;;;;19.04;62.34;98966.31;4995314;28;20449;-70
2021/05/20 06:19:34;;;;;;;7.47;3.80;;;;;;;18.93;63.12;98935.75;4983108;28;20128;-71
2021/05/20 06:22:00;;;;;;;6.60;3.88;;;;;;;18.74;64.23;98937.97;4983686;28;20054;-69
2021/05/20 06:24:26;;;;;;;8.68;4.20;;;;;;;18.67;65.07;98918.66;4988199;28;20922;-68
2021/05/20 06:26:52;;;;;;;18.70;4.45;;;;;;;18.87;65.47;98914.69;4996580;28;20132;-70
2021/05/20 06:29:18;;;;;;;17.23;4.63;;;;;;;18.94;68.21;98884.59;4998575;28;20510;-70
2021/05/20 06:31:44;;;;;;;12.13;4.40;;;;;;;18.77;67.64;98876.81;4991233;28;20129;-69
2021/05/20 06:34:09;;;;;;;14.70;4.53;;;;;;;18.99;68.25;98884.31;4996942;28;20046;-71
2021/05/20 06:36:37;;;;;;;9.05;4.32;;;;;;;18.96;67.31;98889.88;4963682;28;20054;-66
2021/05/20 06:39:05;;;;;;;10.40;4.90;;;;;;;19.18;65.94;98895.53;4995025;28;20759;-69
2021/05/20 06:41:31;;;;;;;8.15;4.38;;;;;;;19.19;66.00;98897.25;4993819;28;20049;-69
2021/05/20 06:43:57;;;;;;;10.27;4.18;;;;;;;19.39;65.50;98884.19;4980787;28;20068;-68
2021/05/20 06:46:23;;;;;;;7.68;4.28;;;;;;;19.63;65.00;98882.47;4996160;28;20405;-70
2021/05/20 06:48:49;;;;;;;9.95;3.72;;;;;;;19.94;63.67;98873.06;4989415;28;20073;-70
2021/05/20 06:51:15;;;;;;;5.45;4.20;;;;;;;20.10;64.17;98884.47;4992366;28;20060;-73
2021/05/20 06:53:41;;;;;;;10.45;4.55;;;;;;;20.03;63.60;98883.16;4985171;28;20432;-71
2021/05/20 06:56:15;;;;;;;7.80;3.42;;;;;;;19.70;63.89;98896.34;4992551;28;20540;-70
2021/05/20 07:01:26;;;;;;;6.97;4.03;;;;;;;20.06;62.72;98920.63;5003049;28;20057;-69
2021/05/20 07:03:54;;;;;;;7.47;3.97;;;;;;;19.84;63.45;98923.09;5002123;28;20107;-73
2021/05/20 07:06:21;;;;;;;5.53;3.60;;;;;;;20.02;62.13;98909.19;4986440;28;20088;-69
2021/05/20 07:08:47;;;;;;;5.20;3.67;;;;;;;20.25;60.85;98910.28;4992139;28;20054;-70
2021/05/20 07:11:13;;;;;;;4.82;3.22;;;;;;;20.49;60.59;98914.72;5009386;28;20045;-70
2021/05/20 07:13:40;;;;;;;4.10;3.17;;;;;;;20.60;59.76;98908.53;4989593;28;20042;-69
2021/05/20 07:16:06;;;;;;;7.25;3.75;;;;;;;20.70;59.99;98910.47;4995027;28;20084;-67
2021/05/20 07:18:32;;;;;;;7.63;3.70;;;;;;;20.38;59.42;98908.41;4994261;28;20078;-71
2021/05/20 07:20:58;;;;;;;7.50;4.82;;;;;;;21.07;58.03;98914.84;4998512;28;20101;-73
2021/05/20 07:23:24;;;;;;;4.97;2.95;;;;;;;21.20;57.55;98917.47;4979293;28;20084;-72
2021/05/20 07:25:50;;;;;;;4.20;2.83;;;;;;;21.15;56.12;98916.94;4994581;28;20065;-69
2021/05/20 07:28:17;;;;;;;4.95;2.90;;;;;;;20.88;56.71;98916.28;5000854;28;20062;-73
2021/05/20 07:30:43;;;;;;;5.90;2.85;;;;;;;20.79;57.20;98923.25;4993143;28;20584;-75
2021/05/20 07:33:11;;;;;;;8.10;3.03;;;;;;;20.38;58.55;98905.72;5002914;28;20057;-75
2021/05/20 07:35:38;;;;;;;4.38;2.70;;;;;;;20.95;56.36;98906.81;4997310;28;20042;-71
2021/05/20 07:38:04;;;;;;;8.60;2.88;;;;;;;20.90;56.02;98896.34;4980158;28;20042;-73
2021/05/20 07:40:30;;;;;;;6.63;3.20;;;;;;;20.74;56.33;98901.19;4995191;28;20604;-77
2021/05/20 07:42:57;;;;;;;4.80;2.97;;;;;;;20.08;57.83;98914.16;4997921;28;20054;-76
2021/05/20 07:45:28;;;;;;;7.82;4.07;;;;;;;20.18;58.43;98919.78;4999510;28;20117;-67
2021/05/20 07:47:54;;;;;;;8.38;4.22;;;;;;;20.16;58.61;98919.00;4999665;28;20046;-66
2021/05/20 07:50:20;;;;;;;6.13;3.95;;;;;;;20.37;58.07;98925.56;4992993;28;20049;-66
2021/05/20 07:52:47;;;;;;;11.82;5.50;;;;;;;20.93;56.98;98930.34;4996229;28;20525;-65
2021/05/20 07:55:14;;;;;;;7.28;4.57;;;;;;;20.76;56.12;98938.75;4992698;28;20422;-65
2021/05/20 07:57:40;;;;;;;6.97;4.78;;;;;;;20.89;56.71;98928.81;4987051;28;20073;-66
2021/05/20 08:00:08;;;;;;;10.93;5.35;;;;;;;21.16;57.02;98940.25;4995949;28;20157;-65
2021/05/20 08:05:33;;;;;;;11.77;6.40;;;;;;;20.80;56.37;98919.56;4998930;28;20501;-65
2021/05/20 08:08:17;;;;;;;11.10;8.13;;;;;;;20.26;58.17;98909.31;5000185;28;20041;-68
2021/05/20 08:13:12;;;;;;;11.48;7.43;;;;;;;20.38;57.46;98903.88;5006876;28;20046;-62
2021/05/20 08:15:38;;;;;;;18.23;7.57;;;;;;;20.19;58.35;98898.13;4993559;28;20042;-65
2021/05/20 08:18:04;;;;;;;9.60;7.88;;;;;;;20.04;58.95;98919.88;5017736;28;20515;-63
2021/05/20 08:20:30;;;;;;;10.20;6.70;;;;;;;20.24;58.20;98938.16;5018844;28;20414;-66
2021/05/20 08:22:56;;;;;;;9.90;6.95;;;;;;;19.96;59.04;98935.69;5009327;28;20494;-67
2021/05/20 08:25:22;;;;;;;21.50;7.38;;;;;;;19.85;59.15;98930.22;4992305;28;20038;-67
2021/05/20 08:27:48;;;;;;;10.48;6.82;;;;;;;19.98;59.13;98942.69;4991152;28;20042;-63
2021/05/20 08:30:17;;;;;;;12.35;6.03;;;;;;;20.53;57.70;98948.53;5003703;28;20096;-63
2021/05/20 08:32:45;;;;;;;10.45;5.95;;;;;;;21.40;55.17;98947.31;4992814;28;20426;-62
2021/05/20 08:35:11;;;;;;;7.63;4.88;;;;;;;23.24;50.06;98946.72;4990338;28;20045;-64
2021/05/20 08:37:38;;;;;;;9.38;5.05;;;;;;;25.82;44.32;98971.13;4986614;28;20057;-62
2021/05/20 08:40:10;;;;;;;8.57;5.38;;;;;;;24.28;47.05;98960.13;4984697;28;20370;-64
2021/05/20 08:42:37;;;;;;;7.33;4.47;;;;;;;23.78;48.10;98954.66;5017406;28;20041;-63
2021/05/20 08:45:15;;;;;;;9.57;4.85;;;;;;;24.23;46.92;98951.53;4985588;28;20050;-63
2021/05/20 08:47:43;;;;;;;7.35;4.35;;;;;;;23.60;48.30;98954.41;4997387;28;20078;-62
2021/05/20 08:50:10;;;;;;;8.13;4.80;;;;;;;22.48;50.88;98948.59;4989266;28;20373;-65
2021/05/20 08:52:38;;;;;;;12.93;5.10;;;;;;;21.78;52.54;98949.75;4990522;28;20124;-66
2021/05/20 08:55:12;;;;;;;8.27;5.00;;;;;;;21.62;53.40;98938.41;4960798;28;20050;-68
2021/05/20 08:57:38;;;;;;;13.50;5.85;;;;;;;21.69;53.41;98923.47;4981172;28;20042;-65
2021/05/20 09:00:07;;;;;;;16.75;6.03;;;;;;;22.14;52.28;98938.75;4986604;28;20050;-59
2021/05/20 09:02:34;;;;;;;10.88;6.05;;;;;;;22.04;52.50;98937.78;4994473;28;20046;-75
2021/05/20 09:05:21;;;;;;;10.68;6.07;;;;;;;22.24;52.33;98950.56;4974801;28;20666;-64
2021/05/20 09:07:56;;;;;;;20.13;6.43;;;;;;;21.88;53.50;98961.56;5001724;28;20069;-65
2021/05/20 09:10:31;;;;;;;8.85;5.90;;;;;;;22.02;53.25;98958.63;4981401;28;20042;-63
2021/05/20 09:13:06;;;;;;;10.50;6.32;;;;;;;21.80;53.30;98959.44;5000313;28;20884;-61
2021/05/20 09:15:37;;;;;;;13.10;6.13;;;;;;;21.86;53.50;98971.63;4993147;28;20029;-61
2021/05/20 09:18:07;;;;;;;12.32;6.15;;;;;;;21.97;53.24;98960.84;4999404;28;20497;-65
2021/05/20 09:20:48;;;;;;;7.55;5.70;;;;;;;22.17;52.47;98965.53;4968473;28;20045;-63
2021/05/20 09:23:26;;;;;;;9.75;5.90;;;;;;;22.02;52.72;98961.31;4990343;28;20124;-65
2021/05/20 09:26:07;;;;;;;6.87;5.53;;;;;;;22.31;51.78;98945.50;4977785;28;20058;-63
2021/05/20 09:28:41;;;;;;;11.43;6.00;;;;;;;22.98;50.30;98966.06;4983086;28;20156;-60
2021/05/20 09:31:09;;;;;;;9.82;6.05;;;;;;;24.95;45.57;98969.38;4996710;28;20050;-62
2021/05/20 09:33:35;;;;;;;12.13;5.55;;;;;;;26.02;42.59;98970.13;4993835;28;20049;-67
2021/05/20 09:36:01;;;;;;;10.38;4.88;;;;;;;24.96;44.53;98952.09;4998305;28;20144;-63
2021/05/20 09:38:27;;;;;;;11.65;4.47;;;;;;;24.84;45.39;98945.06;4987250;28;20096;-64
2021/05/20 09:41:02;;;;;;;12.32;4.63;;;;;;;24.53;46.21;98931.69;5000946;28;20491;-64
2021/05/20 09:43:30;;;;;;;9.27;4.78;;;;;;;25.49;43.81;98931.75;4990662;28;20053;-63
2021/05/20 09:46:00;;;;;;;12.93;4.20;;;;;;;25.03;44.38;98944.25;4997346;28;20522;-62
2021/05/20 09:48:34;;;;;;;14.82;4.70;;;;;;;24.63;45.58;98946.16;4992497;28;20045;-58
2021/05/20 09:51:01;;;;;;;5.63;3.90;;;;;;;24.39;45.32;98951.91;4969975;28;20096;-61
2021/05/20 09:53:28;;;;;;;12.15;4.25;;;;;;;23.94;46.05;98945.13;4996696;28;20464;-63
2021/05/20 09:56:00;;;;;;;8.60;4.30;;;;;;;23.59;47.31;98952.69;4997682;28;20061;-61
2021/05/20 09:58:31;;;;;;;7.85;4.57;;;;;;;25.76;42.91;98969.84;4979399;28;20030;-63
2021/05/20 10:01:16;;;;;;;6.70;4.45;;;;;;;27.33;38.97;98971.53;5010204;28;20077;-63
2021/05/20 10:03:53;;;;;;;8.05;3.95;;;;;;;27.63;37.63;98981.19;4992044;28;20514;-66
2021/05/20 10:06:42;;;;;;;7.20;3.65;;;;;;;27.96;36.53;98967.72;4998719;28;20050;-63
2021/05/20 10:09:10;;;;;;;10.45;3.50;;;;;;;29.12;34.99;98983.41;4978118;28;20557;-64
2021/05/20 10:11:37;;;;;;;14.80;4.13;;;;;;;28.56;35.24;98985.03;4999695;28;20053;-63
2021/05/20 10:14:05;;;;;;;5.85;3.97;;;;;;;28.51;35.62;98971.88;4995389;28;20038;-65
2021/05/20 10:16:33;;;;;;;7.88;3.95;;;;;;;29.04;34.65;98966.16;4994342;28;20141;-65
2021/05/20 10:18:59;;;;;;;8.75;4.20;;;;;;;27.18;37.00;98964.91;4978054;28;20046;-62
2021/05/20 10:21:28;;;;;;;12.43;3.95;;;;;;;25.32;39.95;98954.16;4996360;28;20046;-63
2021/05/20 10:23:56;;;;;;;5.07;3.05;;;;;;;25.90;38.19;98953.13;4988440;28;20058;-65
2021/05/20 10:26:23;;;;;;;17.88;5.85;;;;;;;25.50;38.24;98935.28;4996616;28;20403;-68
2021/05/20 10:28:49;;;;;;;8.73;2.30;;;;;;;25.87;36.37;98942.53;4992500;28;20414;-65
2021/05/20 10:31:17;;;;;;;6.47;3.13;;;;;;;29.10;32.31;98925.38;4987490;28;20069;-64
2021/05/20 10:33:44;;;;;;;29.85;4.05;;;;;;;30.44;30.87;98950.34;4975276;28;20140;-65
2021/05/20 10:36:23;;;;;;;7.40;3.78;;;;;;;31.25;29.31;98940.81;4991043;28;20126;-66
2021/05/20 10:38:50;;;;;;;5.43;2.70;;;;;;;32.74;27.24;98945.28;4988479;28;20521;-66
2021/05/20 10:41:25;;;;;;;3.47;1.90;;;;;;;32.86;25.73;98939.16;4979228;28;20046;-66
2021/05/20 10:44:03;;;;;;;11.18;1.70;;;;;;;32.47;25.49;98948.72;4993739;28;20085;-66
2021/05/20 10:46:30;;;;;;;9.30;1.52;;;;;;;33.53;24.79;98930.69;4994214;28;20528;-66
2021/05/20 10:48:57;;;;;;;2.95;1.50;;;;;;;33.85;24.51;98931.00;4978854;28;20537;-64
2021/05/20 10:51:35;;;;;;;11.30;2.35;;;;;;;33.96;23.72;98930.47;4991739;28;20092;-67
2021/05/20 10:54:04;;;;;;;17.73;1.98;;;;;;;35.19;22.74;98933.19;4992625;28;20477;-65
2021/05/20 10:56:33;;;;;;;4.60;1.50;;;;;;;35.29;21.87;98921.81;5007627;28;20587;-67
2021/05/20 10:59:01;;;;;;;10.05;1.60;;;;;;;35.36;21.64;98933.72;5004964;28;20517;-66
2021/05/20 11:01:30;;;;;;;7.80;1.20;;;;;;;34.68;22.27;98928.28;4993932;28;20069;-66
2021/05/20 11:04:06;;;;;;;6.00;1.50;;;;;;;34.85;22.14;98918.63;4961220;28;20572;-66
2021/05/20 11:06:39;;;;;;;5.30;1.20;;;;;;;34.17;22.21;98907.56;4980419;28;20493;-69
2021/05/20 11:09:10;;;;;;;4.97;1.48;;;;;;;34.58;22.09;98898.34;4995082;28;20125;-67
2021/05/20 11:11:39;;;;;;;3.40;1.30;;;;;;;34.79;21.51;98911.13;4992555;28;20038;-66
2021/05/20 11:14:15;;;;;;;5.43;1.50;;;;;;;31.05;25.52;98888.31;4985066;28;20129;-66
2021/05/20 11:16:42;;;;;;;11.23;1.60;;;;;;;33.84;23.67;98885.28;4981402;28;20054;-66
2021/05/20 11:22:02;;;;;;;13.38;1.98;;;;;;;31.54;25.63;98864.19;4993172;28;20046;-68
2021/05/20 11:24:37;;;;;;;6.53;1.98;;;;;;;32.22;24.24;98863.00;5017710;28;20561;-65
2021/05/20 11:27:14;;;;;;;11.82;1.63;;;;;;;32.21;24.24;98847.59;4991869;28;20472;-67
2021/05/20 11:29:41;;;;;;;5.80;1.55;;;;;;;32.17;24.83;98862.72;4980088;28;20042;-65
2021/05/20 11:37:46;;;;;;;11.07;1.60;;;;;;;30.95;25.45;98849.38;4976135;28;20048;-67
2021/05/20 11:40:32;;;;;;;10.98;2.30;;;;;;;30.46;28.78;98849.78;4997924;28;20054;-68
2021/05/20 11:43:02;;;;;;;3.17;2.20;;;;;;;31.88;27.74;98837.16;4994139;28;20046;-64
2021/05/20 11:45:31;;;;;;;10.63;2.40;;;;;;;32.31;28.83;98837.19;4994549;28;20046;-67
2021/05/20 11:47:58;;;;;;;19.52;2.63;;;;;;;31.68;28.99;98835.97;4994123;28;20038;-66
2021/05/20 11:50:26;;;;;;;9.18;2.30;;;;;;;30.19;29.18;98828.34;4995785;28;20042;-65